sensor_id;sensor_type;location;lat;lon;timestamp;temperature;humidity
4643;DHT22;2334;48.710;9.622;2023-03-13T00:00:28;5.10;99.90
4643;DHT22;2334;48.710;9.622;2023-03-13T00:02:55;5.10;99.90
4643;DHT22;2334;48.710;9.622;2023-03-13T00:05:22;5.10;99.90
4643;DHT22;2334;48.710;9.622;2023-03-13T00:07:49;5.00;99.90
4643;DHT22;2334;48.710;9.622;2023-03-13T00:10:17;5.00;99.90
4643;DHT22;2334;48.710;9.622;2023-03-13T00:12:44;5.00;99.90
4643;DHT22;2334;48.710;9.622;2023-03-13T00:15:11;5.00;99.90
4643;DHT22;2334;48.710;9.622;2023-03-13T00:17:38;4.90;99.90
4643;DHT22;2334;48.710;9.622;2023-03-13T00:20:09;4.90;99.90
4643;DHT22;2334;48.710;9.622;2023-03-13T00:22:36;4.90;99.90
4643;DHT22;2334;48.710;9.622;2023-03-13T00:25:03;5.00;99.90
4643;DHT22;2334;48.710;9.622;2023-03-13T00:27:33;4.90;99.90
4643;DHT22;2334;48.710;9.622;2023-03-13T00:30:00;4.90;99.90
4643;DHT22;2334;48.710;9.622;2023-03-13T00:32:27;4.90;99.90
4643;DHT22;2334;48.710;9.622;2023-03-13T00:34:54;4.90;99.90
4643;DHT22;2334;48.710;9.622;2023-03-13T00:37:20;4.90;99.90
4643;DHT22;2334;48.710;9.622;2023-03-13T00:39:49;4.90;99.90
4643;DHT22;2334;48.710;9.622;2023-03-13T00:42:16;4.80;99.90
4643;DHT22;2334;48.710;9.622;2023-03-13T00:44:44;4.80;99.90
4643;DHT22;2334;48.710;9.622;2023-03-13T00:47:11;4.80;99.90
4643;DHT22;2334;48.710;9.622;2023-03-13T00:49:38;4.80;99.90
4643;DHT22;2334;48.710;9.622;2023-03-13T00:52:05;4.70;99.90
4643;DHT22;2334;48.710;9.622;2023-03-13T00:54:32;4.70;99.90
4643;DHT22;2334;48.710;9.622;2023-03-13T00:56:59;4.70;99.90
4643;DHT22;2334;48.710;9.622;2023-03-13T00:59:26;4.80;99.90
4643;DHT22;2334;48.710;9.622;2023-03-13T01:01:54;4.80;99.90
4643;DHT22;2334;48.710;9.622;2023-03-13T01:04:21;4.80;99.90
4643;DHT22;2334;48.710;9.622;2023-03-13T01:06:48;4.80;99.90
4643;DHT22;2334;48.710;9.622;2023-03-13T01:09:16;4.80;99.90
4643;DHT22;2334;48.710;9.622;2023-03-13T01:11:43;4.80;99.90
4643;DHT22;2334;48.710;9.622;2023-03-13T01:14:13;4.80;99.90
4643;DHT22;2334;48.710;9.622;2023-03-13T01:16:40;4.80;99.90
4643;DHT22;2334;48.710;9.622;2023-03-13T01:19:10;4.80;99.90
4643;DHT22;2334;48.710;9.622;2023-03-13T01:21:38;4.80;99.90
4643;DHT22;2334;48.710;9.622;2023-03-13T01:24:05;4.80;99.90
4643;DHT22;2334;48.710;9.622;2023-03-13T01:26:32;4.70;99.90
4643;DHT22;2334;48.710;9.622;2023-03-13T01:28:59;4.70;99.90
4643;DHT22;2334;48.710;9.622;2023-03-13T01:31:27;4.70;99.90
4643;DHT22;2334;48.710;9.622;2023-03-13T01:33:56;4.70;99.90
4643;DHT22;2334;48.710;9.622;2023-03-13T01:36:25;4.70;99.90
4643;DHT22;2334;48.710;9.622;2023-03-13T01:38:54;4.70;99.90
4643;DHT22;2334;48.710;9.622;2023-03-13T01:41:22;4.80;99.90
4643;DHT22;2334;48.710;9.622;2023-03-13T01:43:50;4.70;99.90
4643;DHT22;2334;48.710;9.622;2023-03-13T01:46:18;4.70;99.90
4643;DHT22;2334;48.710;9.622;2023-03-13T01:48:48;4.70;99.90
4643;DHT22;2334;48.710;9.622;2023-03-13T01:51:21;4.70;99.90
4643;DHT22;2334;48.710;9.622;2023-03-13T01:53:55;4.70;99.90
4643;DHT22;2334;48.710;9.622;2023-03-13T01:56:26;4.70;99.90
4643;DHT22;2334;48.710;9.622;2023-03-13T01:58:56;4.70;99.90
4643;DHT22;2334;48.710;9.622;2023-03-13T02:01:24;4.70;99.90
4643;DHT22;2334;48.710;9.622;2023-03-13T02:03:51;4.60;99.90
4643;DHT22;2334;48.710;9.622;2023-03-13T02:06:18;4.70;99.90
4643;DHT22;2334;48.710;9.622;2023-03-13T02:08:50;4.60;99.90
4643;DHT22;2334;48.710;9.622;2023-03-13T02:11:26;4.60;99.90
4643;DHT22;2334;48.710;9.622;2023-03-13T02:13:55;4.60;99.90
4643;DHT22;2334;48.710;9.622;2023-03-13T02:16:23;4.60;99.90
4643;DHT22;2334;48.710;9.622;2023-03-13T02:18:50;4.60;99.90
4643;DHT22;2334;48.710;9.622;2023-03-13T02:21:26;4.60;99.90
4643;DHT22;2334;48.710;9.622;2023-03-13T02:24:04;4.60;99.90
4643;DHT22;2334;48.710;9.622;2023-03-13T02:26:34;4.60;99.90
4643;DHT22;2334;48.710;9.622;2023-03-13T02:29:01;4.60;99.90
4643;DHT22;2334;48.710;9.622;2023-03-13T02:31:28;4.60;99.90
4643;DHT22;2334;48.710;9.622;2023-03-13T02:33:58;4.60;99.90
4643;DHT22;2334;48.710;9.622;2023-03-13T02:36:26;4.60;99.90
4643;DHT22;2334;48.710;9.622;2023-03-13T02:38:57;4.60;99.90
4643;DHT22;2334;48.710;9.622;2023-03-13T02:41:27;4.60;99.90
4643;DHT22;2334;48.710;9.622;2023-03-13T02:43:55;4.60;99.90
4643;DHT22;2334;48.710;9.622;2023-03-13T02:46:22;4.60;99.90
4643;DHT22;2334;48.710;9.622;2023-03-13T02:48:51;4.60;99.90
4643;DHT22;2334;48.710;9.622;2023-03-13T02:51:21;4.60;99.90
4643;DHT22;2334;48.710;9.622;2023-03-13T02:53:52;4.60;99.90
4643;DHT22;2334;48.710;9.622;2023-03-13T02:56:20;4.70;99.90
4643;DHT22;2334;48.710;9.622;2023-03-13T02:58:48;4.70;99.90
4643;DHT22;2334;48.710;9.622;2023-03-13T03:01:16;4.70;99.90
4643;DHT22;2334;48.710;9.622;2023-03-13T03:03:43;4.80;99.90
4643;DHT22;2334;48.710;9.622;2023-03-13T03:06:10;4.80;99.90
4643;DHT22;2334;48.710;9.622;2023-03-13T03:08:37;4.90;99.90
4643;DHT22;2334;48.710;9.622;2023-03-13T03:11:06;5.00;99.90
4643;DHT22;2334;48.710;9.622;2023-03-13T03:13:33;5.00;99.90
4643;DHT22;2334;48.710;9.622;2023-03-13T03:16:05;5.10;99.90
4643;DHT22;2334;48.710;9.622;2023-03-13T03:18:33;5.10;99.90
4643;DHT22;2334;48.710;9.622;2023-03-13T03:21:03;5.20;99.90
4643;DHT22;2334;48.710;9.622;2023-03-13T03:23:31;5.20;99.90
4643;DHT22;2334;48.710;9.622;2023-03-13T03:25:58;5.20;99.90
4643;DHT22;2334;48.710;9.622;2023-03-13T03:28:25;5.20;99.90
4643;DHT22;2334;48.710;9.622;2023-03-13T03:30:52;5.30;99.90
4643;DHT22;2334;48.710;9.622;2023-03-13T03:33:19;5.30;99.90
4643;DHT22;2334;48.710;9.622;2023-03-13T03:35:47;5.30;99.90
4643;DHT22;2334;48.710;9.622;2023-03-13T03:38:15;5.30;99.90
4643;DHT22;2334;48.710;9.622;2023-03-13T03:40:41;5.30;99.90
4643;DHT22;2334;48.710;9.622;2023-03-13T03:43:08;5.40;99.90
4643;DHT22;2334;48.710;9.622;2023-03-13T03:45:35;5.40;99.90
4643;DHT22;2334;48.710;9.622;2023-03-13T03:48:02;5.40;99.90
4643;DHT22;2334;48.710;9.622;2023-03-13T03:50:29;5.40;99.90
4643;DHT22;2334;48.710;9.622;2023-03-13T03:52:57;5.50;99.90
4643;DHT22;2334;48.710;9.622;2023-03-13T03:55:24;5.50;99.90
4643;DHT22;2334;48.710;9.622;2023-03-13T03:57:51;5.60;99.90
4643;DHT22;2334;48.710;9.622;2023-03-13T04:00:18;5.60;99.90
4643;DHT22;2334;48.710;9.622;2023-03-13T04:02:45;5.70;99.90
4643;DHT22;2334;48.710;9.622;2023-03-13T04:05:12;5.70;99.90
4643;DHT22;2334;48.710;9.622;2023-03-13T04:07:39;5.70;99.90
4643;DHT22;2334;48.710;9.622;2023-03-13T04:10:09;5.70;99.90
4643;DHT22;2334;48.710;9.622;2023-03-13T04:12:36;5.70;99.90
4643;DHT22;2334;48.710;9.622;2023-03-13T04:15:04;5.70;99.90
4643;DHT22;2334;48.710;9.622;2023-03-13T04:17:32;5.70;99.90
4643;DHT22;2334;48.710;9.622;2023-03-13T04:19:59;5.70;99.90
4643;DHT22;2334;48.710;9.622;2023-03-13T04:22:29;5.70;99.90
4643;DHT22;2334;48.710;9.622;2023-03-13T04:24:56;5.70;99.90
4643;DHT22;2334;48.710;9.622;2023-03-13T04:27:24;5.70;99.90
4643;DHT22;2334;48.710;9.622;2023-03-13T04:29:51;5.70;99.90
4643;DHT22;2334;48.710;9.622;2023-03-13T04:32:18;5.70;99.90
4643;DHT22;2334;48.710;9.622;2023-03-13T04:34:44;5.70;99.90
4643;DHT22;2334;48.710;9.622;2023-03-13T04:37:14;5.70;99.90
4643;DHT22;2334;48.710;9.622;2023-03-13T04:39:41;5.70;99.90
4643;DHT22;2334;48.710;9.622;2023-03-13T04:42:09;5.80;99.90
4643;DHT22;2334;48.710;9.622;2023-03-13T04:44:38;5.80;99.90
4643;DHT22;2334;48.710;9.622;2023-03-13T04:47:05;5.80;99.90
4643;DHT22;2334;48.710;9.622;2023-03-13T04:49:32;5.90;99.90
4643;DHT22;2334;48.710;9.622;2023-03-13T04:51:59;5.90;99.90
4643;DHT22;2334;48.710;9.622;2023-03-13T04:54:26;5.90;99.90
4643;DHT22;2334;48.710;9.622;2023-03-13T04:56:53;5.90;99.90
4643;DHT22;2334;48.710;9.622;2023-03-13T04:59:20;5.90;99.90
4643;DHT22;2334;48.710;9.622;2023-03-13T05:01:48;5.90;99.90
4643;DHT22;2334;48.710;9.622;2023-03-13T05:04:15;5.90;99.90
4643;DHT22;2334;48.710;9.622;2023-03-13T05:06:42;5.90;99.90
4643;DHT22;2334;48.710;9.622;2023-03-13T05:09:09;5.90;99.90
4643;DHT22;2334;48.710;9.622;2023-03-13T05:11:36;6.00;99.90
4643;DHT22;2334;48.710;9.622;2023-03-13T05:14:04;5.90;99.90
4643;DHT22;2334;48.710;9.622;2023-03-13T05:16:33;6.00;99.90
4643;DHT22;2334;48.710;9.622;2023-03-13T05:19:02;6.00;99.90
4643;DHT22;2334;48.710;9.622;2023-03-13T05:21:28;6.00;99.90
4643;DHT22;2334;48.710;9.622;2023-03-13T05:23:55;6.00;99.90
4643;DHT22;2334;48.710;9.622;2023-03-13T05:26:22;6.00;99.90
4643;DHT22;2334;48.710;9.622;2023-03-13T05:28:49;6.10;99.90
4643;DHT22;2334;48.710;9.622;2023-03-13T05:31:16;6.00;99.90
4643;DHT22;2334;48.710;9.622;2023-03-13T05:33:45;6.10;99.90
4643;DHT22;2334;48.710;9.622;2023-03-13T05:36:13;6.10;99.90
4643;DHT22;2334;48.710;9.622;2023-03-13T05:38:40;6.10;99.90
4643;DHT22;2334;48.710;9.622;2023-03-13T05:41:07;6.10;99.90
4643;DHT22;2334;48.710;9.622;2023-03-13T05:43:34;6.10;99.90
4643;DHT22;2334;48.710;9.622;2023-03-13T05:46:01;6.10;99.90
4643;DHT22;2334;48.710;9.622;2023-03-13T05:48:27;6.10;99.90
4643;DHT22;2334;48.710;9.622;2023-03-13T05:50:54;6.10;99.90
4643;DHT22;2334;48.710;9.622;2023-03-13T05:53:22;6.10;99.90
4643;DHT22;2334;48.710;9.622;2023-03-13T05:55:49;6.20;99.90
4643;DHT22;2334;48.710;9.622;2023-03-13T05:58:16;6.20;99.90
4643;DHT22;2334;48.710;9.622;2023-03-13T06:00:43;6.20;99.90
4643;DHT22;2334;48.710;9.622;2023-03-13T06:03:10;6.20;99.90
4643;DHT22;2334;48.710;9.622;2023-03-13T06:05:37;6.20;99.90
4643;DHT22;2334;48.710;9.622;2023-03-13T06:08:04;6.20;99.90
4643;DHT22;2334;48.710;9.622;2023-03-13T06:10:33;6.20;99.90
4643;DHT22;2334;48.710;9.622;2023-03-13T06:13:00;6.30;99.90
4643;DHT22;2334;48.710;9.622;2023-03-13T06:15:26;6.30;99.90
4643;DHT22;2334;48.710;9.622;2023-03-13T06:17:53;6.30;99.90
4643;DHT22;2334;48.710;9.622;2023-03-13T06:20:20;6.30;99.90
4643;DHT22;2334;48.710;9.622;2023-03-13T06:22:47;6.40;99.90
4643;DHT22;2334;48.710;9.622;2023-03-13T06:25:14;6.40;99.90
4643;DHT22;2334;48.710;9.622;2023-03-13T06:27:43;6.40;99.90
4643;DHT22;2334;48.710;9.622;2023-03-13T06:30:11;6.40;99.90
4643;DHT22;2334;48.710;9.622;2023-03-13T06:32:37;6.50;99.90
4643;DHT22;2334;48.710;9.622;2023-03-13T06:35:05;6.50;99.90
4643;DHT22;2334;48.710;9.622;2023-03-13T06:37:32;6.50;99.90
4643;DHT22;2334;48.710;9.622;2023-03-13T06:39:59;6.60;99.90
4643;DHT22;2334;48.710;9.622;2023-03-13T06:42:26;6.60;99.90
4643;DHT22;2334;48.710;9.622;2023-03-13T06:44:54;6.60;99.90
4643;DHT22;2334;48.710;9.622;2023-03-13T06:47:21;6.70;99.90
4643;DHT22;2334;48.710;9.622;2023-03-13T06:49:48;6.70;99.90
4643;DHT22;2334;48.710;9.622;2023-03-13T06:52:15;6.80;99.90
4643;DHT22;2334;48.710;9.622;2023-03-13T06:54:41;6.80;99.90
4643;DHT22;2334;48.710;9.622;2023-03-13T06:57:08;6.90;99.90
4643;DHT22;2334;48.710;9.622;2023-03-13T06:59:35;7.00;99.90
4643;DHT22;2334;48.710;9.622;2023-03-13T07:02:05;7.00;99.90
4643;DHT22;2334;48.710;9.622;2023-03-13T07:04:32;7.10;99.90
4643;DHT22;2334;48.710;9.622;2023-03-13T07:07:02;7.20;99.90
4643;DHT22;2334;48.710;9.622;2023-03-13T07:09:29;7.20;99.90
4643;DHT22;2334;48.710;9.622;2023-03-13T07:11:56;7.30;99.90
4643;DHT22;2334;48.710;9.622;2023-03-13T07:14:24;7.40;99.90
4643;DHT22;2334;48.710;9.622;2023-03-13T07:16:51;7.50;99.90
4643;DHT22;2334;48.710;9.622;2023-03-13T07:19:20;7.50;99.90
4643;DHT22;2334;48.710;9.622;2023-03-13T07:21:46;7.60;99.90
4643;DHT22;2334;48.710;9.622;2023-03-13T07:24:14;7.60;99.90
4643;DHT22;2334;48.710;9.622;2023-03-13T07:26:41;7.70;99.90
4643;DHT22;2334;48.710;9.622;2023-03-13T07:29:07;7.70;99.90
4643;DHT22;2334;48.710;9.622;2023-03-13T07:31:36;7.80;99.90
4643;DHT22;2334;48.710;9.622;2023-03-13T07:34:04;7.80;99.90
4643;DHT22;2334;48.710;9.622;2023-03-13T07:36:32;7.90;99.90
4643;DHT22;2334;48.710;9.622;2023-03-13T07:39:00;8.00;99.90
4643;DHT22;2334;48.710;9.622;2023-03-13T07:41:28;8.50;99.90
4643;DHT22;2334;48.710;9.622;2023-03-13T07:43:55;8.60;99.90
4643;DHT22;2334;48.710;9.622;2023-03-13T07:46:22;9.00;99.90
4643;DHT22;2334;48.710;9.622;2023-03-13T07:48:49;9.40;99.90
4643;DHT22;2334;48.710;9.622;2023-03-13T07:51:19;9.70;99.90
4643;DHT22;2334;48.710;9.622;2023-03-13T07:53:47;10.00;99.90
4643;DHT22;2334;48.710;9.622;2023-03-13T07:56:16;10.70;99.90
4643;DHT22;2334;48.710;9.622;2023-03-13T07:58:44;11.10;99.90
4643;DHT22;2334;48.710;9.622;2023-03-13T08:01:19;11.10;99.90
4643;DHT22;2334;48.710;9.622;2023-03-13T08:03:46;11.10;99.90
4643;DHT22;2334;48.710;9.622;2023-03-13T08:06:17;11.30;99.90
4643;DHT22;2334;48.710;9.622;2023-03-13T08:08:44;11.40;99.90
4643;DHT22;2334;48.710;9.622;2023-03-13T08:11:14;11.40;99.90
4643;DHT22;2334;48.710;9.622;2023-03-13T08:13:42;11.50;99.90
4643;DHT22;2334;48.710;9.622;2023-03-13T08:16:11;11.50;99.90
4643;DHT22;2334;48.710;9.622;2023-03-13T08:18:41;11.60;99.90
4643;DHT22;2334;48.710;9.622;2023-03-13T08:21:09;11.60;99.90
4643;DHT22;2334;48.710;9.622;2023-03-13T08:23:37;11.80;99.90
4643;DHT22;2334;48.710;9.622;2023-03-13T08:26:06;12.00;99.90
4643;DHT22;2334;48.710;9.622;2023-03-13T08:28:35;12.20;99.90
4643;DHT22;2334;48.710;9.622;2023-03-13T08:31:15;12.30;99.90
4643;DHT22;2334;48.710;9.622;2023-03-13T08:33:43;12.50;99.90
4643;DHT22;2334;48.710;9.622;2023-03-13T08:36:12;12.60;99.90
4643;DHT22;2334;48.710;9.622;2023-03-13T08:38:39;12.70;99.90
4643;DHT22;2334;48.710;9.622;2023-03-13T08:41:11;12.80;99.90
4643;DHT22;2334;48.710;9.622;2023-03-13T08:43:39;12.90;99.90
4643;DHT22;2334;48.710;9.622;2023-03-13T08:46:06;13.00;99.90
4643;DHT22;2334;48.710;9.622;2023-03-13T08:48:33;13.10;99.90
4643;DHT22;2334;48.710;9.622;2023-03-13T08:51:01;13.20;99.90
4643;DHT22;2334;48.710;9.622;2023-03-13T08:53:28;13.30;99.90
4643;DHT22;2334;48.710;9.622;2023-03-13T08:55:55;13.50;99.90
4643;DHT22;2334;48.710;9.622;2023-03-13T08:58:22;13.60;99.90
4643;DHT22;2334;48.710;9.622;2023-03-13T09:00:51;13.80;99.90
4643;DHT22;2334;48.710;9.622;2023-03-13T09:03:18;13.80;99.90
4643;DHT22;2334;48.710;9.622;2023-03-13T09:05:45;14.00;99.90
4643;DHT22;2334;48.710;9.622;2023-03-13T09:08:13;14.10;99.90
4643;DHT22;2334;48.710;9.622;2023-03-13T09:10:40;14.10;99.90
4643;DHT22;2334;48.710;9.622;2023-03-13T09:13:07;14.10;99.90
4643;DHT22;2334;48.710;9.622;2023-03-13T09:15:34;14.00;99.90
4643;DHT22;2334;48.710;9.622;2023-03-13T09:18:03;14.00;99.90
4643;DHT22;2334;48.710;9.622;2023-03-13T09:20:31;14.00;99.90
4643;DHT22;2334;48.710;9.622;2023-03-13T09:22:57;14.10;99.90
4643;DHT22;2334;48.710;9.622;2023-03-13T09:25:24;14.10;99.90
4643;DHT22;2334;48.710;9.622;2023-03-13T09:27:51;14.10;99.90
4643;DHT22;2334;48.710;9.622;2023-03-13T09:30:18;14.20;99.90
4643;DHT22;2334;48.710;9.622;2023-03-13T09:32:45;14.20;99.90
4643;DHT22;2334;48.710;9.622;2023-03-13T09:35:13;14.20;99.90
4643;DHT22;2334;48.710;9.622;2023-03-13T09:37:40;14.20;99.90
4643;DHT22;2334;48.710;9.622;2023-03-13T09:40:12;14.20;99.90
4643;DHT22;2334;48.710;9.622;2023-03-13T09:42:44;14.30;99.90
4643;DHT22;2334;48.710;9.622;2023-03-13T09:45:14;14.30;99.90
4643;DHT22;2334;48.710;9.622;2023-03-13T09:47:44;14.30;99.90
4643;DHT22;2334;48.710;9.622;2023-03-13T09:50:20;14.40;99.90
4643;DHT22;2334;48.710;9.622;2023-03-13T09:52:52;14.50;99.90
4643;DHT22;2334;48.710;9.622;2023-03-13T09:55:23;14.60;99.90
4643;DHT22;2334;48.710;9.622;2023-03-13T09:57:54;14.70;99.90
4643;DHT22;2334;48.710;9.622;2023-03-13T10:00:24;14.80;99.90
4643;DHT22;2334;48.710;9.622;2023-03-13T10:02:55;14.80;99.90
4643;DHT22;2334;48.710;9.622;2023-03-13T10:05:25;14.80;99.90
4643;DHT22;2334;48.710;9.622;2023-03-13T10:07:56;14.80;99.90
4643;DHT22;2334;48.710;9.622;2023-03-13T10:10:33;14.80;99.90
4643;DHT22;2334;48.710;9.622;2023-03-13T10:13:11;14.70;99.90
4643;DHT22;2334;48.710;9.622;2023-03-13T10:15:43;14.90;99.90
4643;DHT22;2334;48.710;9.622;2023-03-13T10:18:17;14.90;99.90
4643;DHT22;2334;48.710;9.622;2023-03-13T10:20:49;14.90;99.90
4643;DHT22;2334;48.710;9.622;2023-03-13T10:23:20;14.80;99.90
4643;DHT22;2334;48.710;9.622;2023-03-13T10:25:48;14.80;99.90
4643;DHT22;2334;48.710;9.622;2023-03-13T10:28:17;14.90;99.90
4643;DHT22;2334;48.710;9.622;2023-03-13T10:30:47;14.90;99.90
4643;DHT22;2334;48.710;9.622;2023-03-13T10:33:26;15.00;99.90
4643;DHT22;2334;48.710;9.622;2023-03-13T10:36:05;15.10;99.90
4643;DHT22;2334;48.710;9.622;2023-03-13T10:38:34;15.30;99.90
4643;DHT22;2334;48.710;9.622;2023-03-13T10:41:06;15.50;99.90
4643;DHT22;2334;48.710;9.622;2023-03-13T10:43:35;15.90;99.90
4643;DHT22;2334;48.710;9.622;2023-03-13T10:46:23;16.20;99.90
4643;DHT22;2334;48.710;9.622;2023-03-13T10:48:53;16.60;99.90
4643;DHT22;2334;48.710;9.622;2023-03-13T10:51:23;16.80;99.90
4643;DHT22;2334;48.710;9.622;2023-03-13T10:53:50;16.90;99.90
4643;DHT22;2334;48.710;9.622;2023-03-13T10:56:22;17.10;99.90
4643;DHT22;2334;48.710;9.622;2023-03-13T10:58:51;17.30;99.90
4643;DHT22;2334;48.710;9.622;2023-03-13T11:01:21;17.30;99.90
4643;DHT22;2334;48.710;9.622;2023-03-13T11:03:50;17.20;99.90
4643;DHT22;2334;48.710;9.622;2023-03-13T11:06:28;17.30;99.90
4643;DHT22;2334;48.710;9.622;2023-03-13T11:09:03;17.50;99.90
4643;DHT22;2334;48.710;9.622;2023-03-13T11:11:43;17.40;99.90
4643;DHT22;2334;48.710;9.622;2023-03-13T11:14:14;17.50;99.90
4643;DHT22;2334;48.710;9.622;2023-03-13T11:16:47;17.70;99.90
4643;DHT22;2334;48.710;9.622;2023-03-13T11:19:27;17.80;99.90
4643;DHT22;2334;48.710;9.622;2023-03-13T11:24:48;17.90;99.90
4643;DHT22;2334;48.710;9.622;2023-03-13T11:27:23;18.00;99.90
4643;DHT22;2334;48.710;9.622;2023-03-13T11:30:00;18.40;99.90
4643;DHT22;2334;48.710;9.622;2023-03-13T11:32:35;18.60;99.90
4643;DHT22;2334;48.710;9.622;2023-03-13T11:35:06;18.60;99.90
4643;DHT22;2334;48.710;9.622;2023-03-13T11:37:40;18.80;99.90
4643;DHT22;2334;48.710;9.622;2023-03-13T11:40:17;18.80;99.90
4643;DHT22;2334;48.710;9.622;2023-03-13T11:42:58;18.60;99.90
4643;DHT22;2334;48.710;9.622;2023-03-13T11:45:54;18.60;99.90
4643;DHT22;2334;48.710;9.622;2023-03-13T11:51:20;18.50;99.90
4643;DHT22;2334;48.710;9.622;2023-03-13T11:54:02;18.50;99.90
4643;DHT22;2334;48.710;9.622;2023-03-13T11:56:35;18.40;99.90
4643;DHT22;2334;48.710;9.622;2023-03-13T11:59:16;18.50;99.90
4643;DHT22;2334;48.710;9.622;2023-03-13T12:01:48;18.40;99.90
4643;DHT22;2334;48.710;9.622;2023-03-13T12:04:21;18.40;99.90
4643;DHT22;2334;48.710;9.622;2023-03-13T12:06:51;18.30;99.90
4643;DHT22;2334;48.710;9.622;2023-03-13T12:09:26;18.30;99.90
4643;DHT22;2334;48.710;9.622;2023-03-13T12:12:00;18.30;99.90
4643;DHT22;2334;48.710;9.622;2023-03-13T12:14:37;18.20;99.90
4643;DHT22;2334;48.710;9.622;2023-03-13T12:17:09;18.10;99.90
4643;DHT22;2334;48.710;9.622;2023-03-13T12:19:41;18.40;99.90
4643;DHT22;2334;48.710;9.622;2023-03-13T12:22:18;18.70;99.90
4643;DHT22;2334;48.710;9.622;2023-03-13T12:24:52;18.80;99.90
4643;DHT22;2334;48.710;9.622;2023-03-13T12:27:25;19.00;99.90
4643;DHT22;2334;48.710;9.622;2023-03-13T12:30:00;19.30;99.90
4643;DHT22;2334;48.710;9.622;2023-03-13T12:32:34;19.40;99.90
4643;DHT22;2334;48.710;9.622;2023-03-13T12:35:13;19.60;99.90
4643;DHT22;2334;48.710;9.622;2023-03-13T12:37:47;19.70;99.90
4643;DHT22;2334;48.710;9.622;2023-03-13T12:40:23;19.80;99.90
4643;DHT22;2334;48.710;9.622;2023-03-13T12:42:57;19.90;99.90
4643;DHT22;2334;48.710;9.622;2023-03-13T12:45:32;19.90;99.90
4643;DHT22;2334;48.710;9.622;2023-03-13T12:51:07;20.10;99.90
4643;DHT22;2334;48.710;9.622;2023-03-13T12:54:05;20.30;99.90
4643;DHT22;2334;48.710;9.622;2023-03-13T12:57:07;20.20;99.90
4643;DHT22;2334;48.710;9.622;2023-03-13T12:59:38;20.20;99.90
4643;DHT22;2334;48.710;9.622;2023-03-13T13:02:14;20.00;99.90
4643;DHT22;2334;48.710;9.622;2023-03-13T13:04:44;20.10;99.90
4643;DHT22;2334;48.710;9.622;2023-03-13T13:07:21;20.10;99.90
4643;DHT22;2334;48.710;9.622;2023-03-13T13:10:01;20.10;99.90
4643;DHT22;2334;48.710;9.622;2023-03-13T13:12:30;20.20;99.90
4643;DHT22;2334;48.710;9.622;2023-03-13T13:15:17;20.20;99.90
4643;DHT22;2334;48.710;9.622;2023-03-13T13:17:59;20.40;99.90
4643;DHT22;2334;48.710;9.622;2023-03-13T13:20:36;20.40;99.90
4643;DHT22;2334;48.710;9.622;2023-03-13T13:23:24;20.50;99.90
4643;DHT22;2334;48.710;9.622;2023-03-13T13:25:53;20.40;99.90
4643;DHT22;2334;48.710;9.622;2023-03-13T13:28:33;20.50;99.90
4643;DHT22;2334;48.710;9.622;2023-03-13T13:31:01;20.50;99.90
4643;DHT22;2334;48.710;9.622;2023-03-13T13:33:48;20.60;99.90
4643;DHT22;2334;48.710;9.622;2023-03-13T13:36:30;20.70;99.90
4643;DHT22;2334;48.710;9.622;2023-03-13T13:38:57;20.80;99.90
4643;DHT22;2334;48.710;9.622;2023-03-13T13:41:36;20.90;99.90
4643;DHT22;2334;48.710;9.622;2023-03-13T13:44:32;21.10;99.90
4643;DHT22;2334;48.710;9.622;2023-03-13T13:46:59;21.00;99.90
4643;DHT22;2334;48.710;9.622;2023-03-13T13:49:35;21.00;99.90
4643;DHT22;2334;48.710;9.622;2023-03-13T13:52:34;20.80;99.90
4643;DHT22;2334;48.710;9.622;2023-03-13T13:55:01;20.80;99.90
4643;DHT22;2334;48.710;9.622;2023-03-13T13:57:31;20.70;99.90
4643;DHT22;2334;48.710;9.622;2023-03-13T14:00:15;20.70;99.90
4643;DHT22;2334;48.710;9.622;2023-03-13T14:02:49;20.60;99.90
4643;DHT22;2334;48.710;9.622;2023-03-13T14:05:24;20.60;99.90
4643;DHT22;2334;48.710;9.622;2023-03-13T14:07:59;20.60;99.90
4643;DHT22;2334;48.710;9.622;2023-03-13T14:10:36;20.50;99.90
4643;DHT22;2334;48.710;9.622;2023-03-13T14:13:14;20.50;99.90
4643;DHT22;2334;48.710;9.622;2023-03-13T14:15:44;20.50;99.90
4643;DHT22;2334;48.710;9.622;2023-03-13T14:18:19;20.50;99.90
4643;DHT22;2334;48.710;9.622;2023-03-13T14:20:55;20.60;99.90
4643;DHT22;2334;48.710;9.622;2023-03-13T14:23:31;20.70;99.90
4643;DHT22;2334;48.710;9.622;2023-03-13T14:26:08;20.70;99.90
4643;DHT22;2334;48.710;9.622;2023-03-13T14:28:39;20.70;99.90
4643;DHT22;2334;48.710;9.622;2023-03-13T14:31:08;20.60;99.90
4643;DHT22;2334;48.710;9.622;2023-03-13T14:33:36;20.40;99.90
4643;DHT22;2334;48.710;9.622;2023-03-13T14:36:06;20.30;99.90
4643;DHT22;2334;48.710;9.622;2023-03-13T14:38:34;20.30;99.90
4643;DHT22;2334;48.710;9.622;2023-03-13T14:41:01;20.30;99.90
4643;DHT22;2334;48.710;9.622;2023-03-13T14:43:32;20.30;99.90
4643;DHT22;2334;48.710;9.622;2023-03-13T14:46:11;20.30;99.90
4643;DHT22;2334;48.710;9.622;2023-03-13T14:48:40;20.40;99.90
4643;DHT22;2334;48.710;9.622;2023-03-13T14:51:09;20.50;99.90
4643;DHT22;2334;48.710;9.622;2023-03-13T14:53:37;20.60;99.90
4643;DHT22;2334;48.710;9.622;2023-03-13T14:56:12;20.60;99.90
4643;DHT22;2334;48.710;9.622;2023-03-13T14:58:39;20.40;99.90
4643;DHT22;2334;48.710;9.622;2023-03-13T15:01:24;20.40;99.90
4643;DHT22;2334;48.710;9.622;2023-03-13T15:03:54;20.30;99.90
4643;DHT22;2334;48.710;9.622;2023-03-13T15:06:22;20.30;99.90
4643;DHT22;2334;48.710;9.622;2023-03-13T15:09:13;20.30;99.90
4643;DHT22;2334;48.710;9.622;2023-03-13T15:11:41;20.20;99.90
4643;DHT22;2334;48.710;9.622;2023-03-13T15:14:33;20.10;99.90
4643;DHT22;2334;48.710;9.622;2023-03-13T15:17:01;20.00;99.90
4643;DHT22;2334;48.710;9.622;2023-03-13T15:19:30;19.90;99.90
4643;DHT22;2334;48.710;9.622;2023-03-13T15:21:57;19.80;99.90
4643;DHT22;2334;48.710;9.622;2023-03-13T15:24:24;19.80;99.90
4643;DHT22;2334;48.710;9.622;2023-03-13T15:26:51;19.80;99.90
4643;DHT22;2334;48.710;9.622;2023-03-13T15:29:18;19.80;99.90
4643;DHT22;2334;48.710;9.622;2023-03-13T15:31:45;19.80;99.90
4643;DHT22;2334;48.710;9.622;2023-03-13T15:34:14;20.10;99.90
4643;DHT22;2334;48.710;9.622;2023-03-13T15:36:43;20.60;99.90
4643;DHT22;2334;48.710;9.622;2023-03-13T15:39:13;20.60;99.90
4643;DHT22;2334;48.710;9.622;2023-03-13T15:41:40;20.50;99.90
4643;DHT22;2334;48.710;9.622;2023-03-13T15:44:08;20.10;99.90
4643;DHT22;2334;48.710;9.622;2023-03-13T15:46:34;20.00;99.90
4643;DHT22;2334;48.710;9.622;2023-03-13T15:49:02;19.80;99.90
4643;DHT22;2334;48.710;9.622;2023-03-13T15:51:29;19.60;99.90
4643;DHT22;2334;48.710;9.622;2023-03-13T15:53:58;19.50;99.90
4643;DHT22;2334;48.710;9.622;2023-03-13T15:56:30;19.30;99.90
4643;DHT22;2334;48.710;9.622;2023-03-13T15:59:00;19.70;99.90
4643;DHT22;2334;48.710;9.622;2023-03-13T16:01:27;20.00;99.90
4643;DHT22;2334;48.710;9.622;2023-03-13T16:03:54;19.90;99.90
4643;DHT22;2334;48.710;9.622;2023-03-13T16:06:25;19.70;99.90
4643;DHT22;2334;48.710;9.622;2023-03-13T16:08:55;19.40;99.90
4643;DHT22;2334;48.710;9.622;2023-03-13T16:11:26;19.30;99.90
4643;DHT22;2334;48.710;9.622;2023-03-13T16:13:53;19.10;99.90
4643;DHT22;2334;48.710;9.622;2023-03-13T16:16:22;19.00;99.90
4643;DHT22;2334;48.710;9.622;2023-03-13T16:18:51;18.90;99.90
4643;DHT22;2334;48.710;9.622;2023-03-13T16:21:20;18.90;99.90
4643;DHT22;2334;48.710;9.622;2023-03-13T16:23:47;18.80;99.90
4643;DHT22;2334;48.710;9.622;2023-03-13T16:26:16;18.70;99.90
4643;DHT22;2334;48.710;9.622;2023-03-13T16:28:46;18.70;99.90
4643;DHT22;2334;48.710;9.622;2023-03-13T16:31:18;18.60;99.90
4643;DHT22;2334;48.710;9.622;2023-03-13T16:33:45;18.70;99.90
4643;DHT22;2334;48.710;9.622;2023-03-13T16:36:14;18.70;99.90